Surface Preassure
0:00 UTC
12:00 UTC (Click for larger versions)
Andrewsfield Outlook

Current time:

  07:23:55am (GMT)      07:23:55am (UTC)

Headline: Bitterly cold and windy with further snow showers.

Today: Strong and bitterly cold winds, with sunny intervals and further snow showers. The showers most frequent and heavy through the morning, before tending to become lighter and more scattered later. Snow drifting across hills. Winds easing slowly. Maximum Temperature 1C.

Tonight: A rather cloudy night is expected with most areas becoming dry with easterly winds continuing to slowly decrease in strength. Staying cold with a frost affecting most parts. Minimum Temperature -4C.

Monday: Monday probably a little brighter and mostly dry. Chance of showers in east. Snow will thaw in most places except across highest ground where temperatures remain below freezing. Maximum Temperature 5C.

Outlook for Tuesday to Thursday: Tuesday similar to Monday and slightly milder with snow thawing. Breezier and milder on Wednesday and Thursday with some rain in places, but a lot of dry weather is likely.


Weather warnings


Stansted (EGSS)

Current conditions: MVFR

METAR: EGSS 180650Z AUTO 07017KT 9999 BKN022 OVC026 M01/M04 Q1008

TAF: TAF EGSS 180506Z 1806/1912 05015KT 9999 BKN022 TEMPO 1806/1818 07018G28KT PROB30 TEMPO 1806/1812 4000 -SHSN BKN014 BECMG 1906/1909 07018G28KT CAVOK

Southend (EGMC)

Current conditions: MVFR

METAR: EGMC 180650Z 07018KT 9999 BKN022 00/M03 Q1007

TAF: TAF EGMC 180506Z 1806/1815 06015KT 9999 BKN025 TEMPO 1806/1815 06020G30KT PROB30 TEMPO 1806/1815 4000 -SHSN BKN014

RAF Wattisham (EGUW)

Current conditions: MVFR

METAR: EGUW 180650Z AUTO 09017G27KT 9999 OVC024/// M01/M06 Q1008